Time;durP1;ratioP1;P1;durP2;ratioP2;P2;SDS_P1;SDS_P2;PMS_P1;PMS_P2;Temp;Humidity;BMP_temperature;BMP_pressure;BME280_temperature;BME280_humidity;BME280_pressure;Samples;Min_cycle;Max_cycle;Signal;HPM_P1;HPM_P2
2022/05/22 00:02:18;;;;;;;;;;;13.40;1.00;;;;;;10457081;27;84000;-53
2022/05/22 00:07:18;;;;;;;;;;;13.40;1.00;;;;;;10437370;28;83957;-53
2022/05/22 00:12:19;;;;;;;;;;;13.50;1.00;;;;;;10414642;28;84057;-52
2022/05/22 00:17:19;;;;;;;;;;;13.40;1.00;;;;;;10415283;27;84231;-52
2022/05/22 00:22:20;;;;;;;;;;;13.40;1.00;;;;;;10451422;27;83649;-54
2022/05/22 00:27:22;;;;;;;;;;;13.30;1.00;;;;;;10480691;27;84085;-55
2022/05/22 00:32:22;;;;;;;;;;;13.30;1.00;;;;;;10480525;27;85271;-55
2022/05/22 00:37:23;;;;;;;;;;;13.30;1.00;;;;;;10475378;27;86009;-53
2022/05/22 00:42:25;;;;;;;;;;;13.30;1.00;;;;;;10477325;27;84281;-53
2022/05/22 00:47:25;;;;;;;;;;;13.40;1.00;;;;;;10472423;27;84244;-53
2022/05/22 00:52:29;;;;;;;;;;;13.30;1.00;;;;;;10470059;27;84040;-55
2022/05/22 00:57:40;;;;;;;;;;;13.30;1.00;;;;;;10457742;27;84102;-55
2022/05/22 01:08:00;;;;;;;;;;;13.20;15.70;;;;;;10479141;27;83374;-52
2022/05/22 01:13:01;;;;;;;;;;;13.20;9.60;;;;;;10477565;27;83414;-53
2022/05/22 01:18:02;;;;;;;;;;;13.20;23.00;;;;;;10478176;27;85218;-51
2022/05/22 01:23:03;;;;;;;;;;;13.00;24.00;;;;;;10469990;27;85913;-54
2022/05/22 01:28:04;;;;;;;;;;;12.90;69.60;;;;;;10458821;27;85246;-52
2022/05/22 01:33:05;;;;;;;;;;;12.80;99.90;;;;;;10496958;27;84148;-51
2022/05/22 01:38:07;;;;;;;;;;;12.70;99.90;;;;;;10480364;27;84948;-53
2022/05/22 01:43:13;;;;;;;;;;;12.70;99.90;;;;;;10470522;27;85172;-51
2022/05/22 01:48:17;;;;;;;;;;;12.60;99.90;;;;;;10452813;28;86076;-54
2022/05/22 01:53:21;;;;;;;;;;;12.60;99.90;;;;;;10450276;28;85278;-54
2022/05/22 01:58:23;;;;;;;;;;;12.50;99.90;;;;;;10439940;28;85869;-54
2022/05/22 02:03:24;;;;;;;;;;;12.40;99.90;;;;;;10409157;27;85216;-55
2022/05/22 02:08:26;;;;;;;;;;;12.30;99.90;;;;;;10452185;27;85005;-52
2022/05/22 02:13:29;;;;;;;;;;;12.20;99.90;;;;;;10478028;27;83315;-55
2022/05/22 02:18:30;;;;;;;;;;;12.10;99.90;;;;;;10470602;27;84330;-57
2022/05/22 02:23:32;;;;;;;;;;;12.10;99.90;;;;;;10461753;27;83342;-54
2022/05/22 02:28:32;;;;;;;;;;;12.10;99.90;;;;;;10452639;27;86161;-50
2022/05/22 02:33:34;;;;;;;;;;;12.20;99.90;;;;;;10482361;27;84110;-52
2022/05/22 02:38:41;;;;;;;;;;;12.20;99.90;;;;;;10473313;27;84847;-51
2022/05/22 02:43:44;;;;;;;;;;;12.10;99.90;;;;;;10467047;27;85759;-52
2022/05/22 02:48:46;;;;;;;;;;;12.10;99.90;;;;;;10457461;27;85128;-53
2022/05/22 02:53:47;;;;;;;;;;;12.10;99.90;;;;;;10474780;27;85967;-54
2022/05/22 02:58:48;;;;;;;;;;;12.10;99.90;;;;;;10437968;27;83281;-52
2022/05/22 03:03:48;;;;;;;;;;;12.00;99.90;;;;;;10448609;28;83506;-53
2022/05/22 03:08:49;;;;;;;;;;;11.90;99.90;;;;;;10449849;28;86073;-51
2022/05/22 03:13:50;;;;;;;;;;;11.90;99.90;;;;;;10451078;27;83399;-54
2022/05/22 03:18:51;;;;;;;;;;;11.90;99.90;;;;;;10440234;28;86011;-54
2022/05/22 03:23:54;;;;;;;;;;;11.80;99.90;;;;;;10408182;28;85133;-55
2022/05/22 03:28:55;;;;;;;;;;;11.80;99.90;;;;;;10425584;28;83373;-52
2022/05/22 03:33:56;;;;;;;;;;;11.80;99.90;;;;;;10450666;27;84102;-58
2022/05/22 03:38:57;;;;;;;;;;;11.70;99.90;;;;;;10448783;28;85215;-56
2022/05/22 03:43:57;;;;;;;;;;;11.70;99.90;;;;;;10448177;28;85834;-56
2022/05/22 03:49:14;;;;;;;;;;;11.70;99.90;;;;;;10448977;28;85881;-55
2022/05/22 03:54:15;;;;;;;;;;;11.70;99.90;;;;;;10455935;28;85154;-52
2022/05/22 03:59:18;;;;;;;;;;;11.60;99.90;;;;;;10428699;28;85755;-52
2022/05/22 04:04:19;;;;;;;;;;;11.60;99.90;;;;;;10451695;22;86410;-49
2022/05/22 04:09:20;;;;;;;;;;;11.60;99.90;;;;;;10425993;27;85347;-50
2022/05/22 04:14:37;;;;;;;;;;;11.60;99.90;;;;;;10427480;28;84899;-49
2022/05/22 04:19:41;;;;;;;;;;;11.60;99.90;;;;;;10396027;28;85999;-54
2022/05/22 04:30:08;;;;;;;;;;;11.80;99.90;;;;;;10412278;28;83246;-54
2022/05/22 04:35:18;;;;;;;;;;;12.00;99.90;;;;;;10413509;28;85814;-50
2022/05/22 04:40:19;;;;;;;;;;;12.10;99.90;;;;;;10414578;27;84052;-50
2022/05/22 04:45:20;;;;;;;;;;;12.10;99.90;;;;;;10441100;27;85124;-56
2022/05/22 04:50:36;;;;;;;;;;;12.30;99.90;;;;;;10428390;28;85346;-53
2022/05/22 04:55:46;;;;;;;;;;;12.30;99.90;;;;;;10451589;28;84334;-51
2022/05/22 05:00:48;;;;;;;;;;;12.40;99.90;;;;;;10432320;28;85067;-49
2022/05/22 05:05:55;;;;;;;;;;;12.50;99.90;;;;;;10412975;28;85392;-52
2022/05/22 05:10:57;;;;;;;;;;;12.50;99.90;;;;;;10423916;28;85301;-49
2022/05/22 05:16:05;;;;;;;;;;;12.70;99.90;;;;;;10413514;28;86146;-49
2022/05/22 05:21:12;;;;;;;;;;;12.80;99.90;;;;;;10415140;28;85045;-49
2022/05/22 05:26:14;;;;;;;;;;;12.90;99.90;;;;;;10412364;28;85688;-50
2022/05/22 05:31:15;;;;;;;;;;;13.10;24.80;;;;;;10418313;28;85051;-51
2022/05/22 05:36:16;;;;;;;;;;;13.30;1.00;;;;;;10429701;28;85149;-48
2022/05/22 05:41:37;;;;;;;;;;;13.40;1.00;;;;;;10402269;28;84015;-51
2022/05/22 05:46:38;;;;;;;;;;;13.60;1.00;;;;;;10397415;27;85221;-50
2022/05/22 05:51:44;;;;;;;;;;;13.70;1.00;;;;;;10437856;28;86316;-47
2022/05/22 05:56:49;;;;;;;;;;;13.90;1.00;;;;;;10433659;27;86050;-56
2022/05/22 06:02:13;;;;;;;;;;;14.20;1.00;;;;;;10431085;28;85239;-58
2022/05/22 06:07:14;;;;;;;;;;;14.30;1.00;;;;;;10428048;28;84948;-49
2022/05/22 06:12:14;;;;;;;;;;;14.60;1.00;;;;;;10429075;28;84865;-49
2022/05/22 06:17:33;;;;;;;;;;;14.80;1.00;;;;;;10441052;27;85005;-50
2022/05/22 06:22:35;;;;;;;;;;;15.10;1.00;;;;;;10418915;28;84112;-48
2022/05/22 06:27:37;;;;;;;;;;;15.30;1.00;;;;;;10430485;28;84155;-53
2022/05/22 06:32:54;;;;;;;;;;;15.30;1.00;;;;;;10411713;28;86089;-52
2022/05/22 06:39:49;;;;;;;;;;;15.50;1.00;;;;;;10391491;28;86014;-53
2022/05/22 06:43:51;;;;;;;;;;;15.70;1.00;;;;;;10447375;28;83931;-50
2022/05/22 06:49:31;;;;;;;;;;;15.80;1.00;;;;;;10404318;28;83892;-53
2022/05/22 06:54:38;;;;;;;;;;;16.20;1.00;;;;;;10390997;28;86114;-54
2022/05/22 06:59:53;;;;;;;;;;;16.40;99.90;;;;;;10412003;28;86091;-51
2022/05/22 07:05:12;;;;;;;;;;;16.50;99.90;;;;;;10432735;28;83354;-53
2022/05/22 07:16:10;;;;;;;;;;;17.10;99.90;;;;;;10411254;28;85285;-51
2022/05/22 07:21:24;;;;;;;;;;;17.70;1.00;;;;;;10412971;28;84282;-55
2022/05/22 07:26:51;;;;;;;;;;;18.50;99.90;;;;;;10430140;28;84337;-56
2022/05/22 07:32:05;;;;;;;;;;;19.10;99.90;;;;;;10424071;28;85336;-51
2022/05/22 07:37:26;;;;;;;;;;;19.80;1.00;;;;;;10424698;28;84813;-53
2022/05/22 07:42:37;;;;;;;;;;;20.50;1.00;;;;;;10432828;28;85011;-57
2022/05/22 07:47:57;;;;;;;;;;;20.60;99.90;;;;;;10437983;28;83223;-55
2022/05/22 07:53:10;;;;;;;;;;;20.80;1.00;;;;;;10415416;28;85739;-55
2022/05/22 07:58:13;;;;;;;;;;;21.50;1.00;;;;;;10433576;28;83311;-52
2022/05/22 08:03:19;;;;;;;;;;;21.80;1.00;;;;;;10431813;28;85047;-55
2022/05/22 08:08:29;;;;;;;;;;;22.30;1.00;;;;;;10428466;28;85131;-56
2022/05/22 08:13:50;;;;;;;;;;;22.70;99.90;;;;;;10428506;28;85875;-55
2022/05/22 08:18:54;;;;;;;;;;;22.80;1.00;;;;;;10410393;28;85934;-52
2022/05/22 08:23:55;;;;;;;;;;;22.50;1.00;;;;;;10432641;28;86107;-54
2022/05/22 08:29:00;;;;;;;;;;;23.10;1.00;;;;;;10416472;28;84164;-55
2022/05/22 08:34:03;;;;;;;;;;;23.10;1.00;;;;;;10429323;28;85039;-54
2022/05/22 08:39:03;;;;;;;;;;;23.40;99.90;;;;;;10434898;28;83502;-52
2022/05/22 08:44:27;;;;;;;;;;;24.10;99.90;;;;;;10397070;28;86146;-54
2022/05/22 08:49:30;;;;;;;;;;;24.30;99.90;;;;;;10437398;28;84202;-54
2022/05/22 08:54:33;;;;;;;;;;;24.70;99.90;;;;;;10430704;28;84210;-55
2022/05/22 08:59:36;;;;;;;;;;;24.30;30.00;;;;;;10432443;28;84432;-55
2022/05/22 09:04:39;;;;;;;;;;;25.00;1.00;;;;;;10433812;28;83420;-51
2022/05/22 09:09:40;;;;;;;;;;;25.30;1.00;;;;;;10431886;28;84062;-52
2022/05/22 09:14:49;;;;;;;;;;;25.50;1.00;;;;;;10435717;28;84214;-55
2022/05/22 09:19:50;;;;;;;;;;;25.80;1.00;;;;;;10439297;28;83314;-47
2022/05/22 09:25:00;;;;;;;;;;;25.90;1.00;;;;;;10438423;28;84016;-53
2022/05/22 09:30:20;;;;;;;;;;;25.40;1.00;;;;;;10447079;28;83264;-52
2022/05/22 09:35:30;;;;;;;;;;;24.60;1.00;;;;;;10437592;28;86196;-58
2022/05/22 09:40:42;;;;;;;;;;;25.20;1.00;;;;;;10433723;28;84041;-53
2022/05/22 09:45:55;;;;;;;;;;;26.10;1.00;;;;;;10423206;28;85287;-52
2022/05/22 09:50:58;;;;;;;;;;;26.80;1.00;;;;;;10412480;28;83276;-53
2022/05/22 09:56:26;;;;;;;;;;;27.10;1.00;;;;;;10431207;28;85053;-55
2022/05/22 10:01:32;;;;;;;;;;;26.70;1.00;;;;;;10427872;28;83534;-56
2022/05/22 10:06:46;;;;;;;;;;;25.80;99.90;;;;;;10471831;22;84031;-55
2022/05/22 10:12:10;;;;;;;;;;;26.50;1.00;;;;;;10492796;27;83455;-52
2022/05/22 10:17:23;;;;;;;;;;;26.60;99.90;;;;;;10445184;27;85582;-52
2022/05/22 10:22:42;;;;;;;;;;;25.70;99.90;;;;;;10469986;27;84018;-55
2022/05/22 10:28:02;;;;;;;;;;;26.60;99.90;;;;;;10470879;27;85007;-50
2022/05/22 10:33:05;;;;;;;;;;;27.30;99.90;;;;;;10489992;27;83843;-56
2022/05/22 10:38:22;;;;;;;;;;;25.90;99.90;;;;;;10483398;27;83358;-55
2022/05/22 10:43:24;;;;;;;;;;;25.20;99.90;;;;;;10471137;27;104860;-54
2022/05/22 10:48:26;;;;;;;;;;;24.10;99.90;;;;;;10478992;27;84114;-54
2022/05/22 10:53:30;;;;;;;;;;;24.00;99.90;;;;;;10480132;27;84642;-56
2022/05/22 10:58:32;;;;;;;;;;;25.20;99.90;;;;;;10467814;27;83453;-52
2022/05/22 11:03:34;;;;;;;;;;;26.00;99.90;;;;;;10466447;27;83247;-55
2022/05/22 11:08:35;;;;;;;;;;;26.80;99.90;;;;;;10471866;27;84176;-54
2022/05/22 11:13:35;;;;;;;;;;;27.50;99.90;;;;;;10452370;27;86178;-53
2022/05/22 11:18:36;;;;;;;;;;;26.10;37.50;;;;;;10475283;27;83753;-53
2022/05/22 11:23:48;;;;;;;;;;;25.60;93.60;;;;;;10479776;27;83732;-51
2022/05/22 11:29:00;;;;;;;;;;;26.40;83.00;;;;;;10473470;27;83649;-52
2022/05/22 11:34:11;;;;;;;;;;;26.10;24.80;;;;;;10478365;27;84023;-53
2022/05/22 11:39:18;;;;;;;;;;;27.30;8.80;;;;;;10478566;27;83995;-52
2022/05/22 11:44:21;;;;;;;;;;;28.10;1.00;;;;;;10477246;27;83504;-52
2022/05/22 11:49:40;;;;;;;;;;;28.30;1.00;;;;;;10479590;27;83391;-54
2022/05/22 11:55:05;;;;;;;;;;;27.90;1.00;;;;;;10478833;27;83186;-55
2022/05/22 12:00:08;;;;;;;;;;;27.40;1.00;;;;;;10473652;27;83818;-54
2022/05/22 12:05:15;;;;;;;;;;;26.10;1.00;;;;;;10460123;27;83596;-53
2022/05/22 12:10:18;;;;;;;;;;;25.10;1.00;;;;;;10476213;27;83319;-54
2022/05/22 12:15:31;;;;;;;;;;;23.70;1.00;;;;;;10477018;27;83418;-52
2022/05/22 12:20:35;;;;;;;;;;;24.90;1.00;;;;;;10476202;27;84019;-53
2022/05/22 12:25:42;;;;;;;;;;;26.80;1.00;;;;;;10460466;27;83367;-56
2022/05/22 12:30:43;;;;;;;;;;;28.00;1.00;;;;;;10476203;27;83364;-54
2022/05/22 12:35:44;;;;;;;;;;;28.30;1.00;;;;;;10479055;27;84036;-54
2022/05/22 12:40:50;;;;;;;;;;;28.40;1.00;;;;;;10477206;27;83475;-52
2022/05/22 12:45:58;;;;;;;;;;;28.90;1.00;;;;;;10477416;27;84249;-51
2022/05/22 12:51:08;;;;;;;;;;;28.90;1.00;;;;;;10457871;27;85302;-52
2022/05/22 12:56:27;;;;;;;;;;;29.60;1.00;;;;;;10476074;27;84101;-57
2022/05/22 13:01:30;;;;;;;;;;;29.40;1.00;;;;;;10478669;27;83612;-56
2022/05/22 13:06:36;;;;;;;;;;;29.40;1.00;;;;;;10475110;27;84163;-56
2022/05/22 13:11:39;;;;;;;;;;;29.60;1.00;;;;;;10477842;27;83540;-52
2022/05/22 13:16:47;;;;;;;;;;;29.80;1.00;;;;;;10477456;27;84228;-55
2022/05/22 13:21:47;;;;;;;;;;;28.90;1.00;;;;;;10472886;27;83397;-57
2022/05/22 13:26:59;;;;;;;;;;;27.50;1.00;;;;;;10476214;27;84091;-52
2022/05/22 13:32:02;;;;;;;;;;;28.30;1.00;;;;;;10474785;27;83362;-57
2022/05/22 13:37:07;;;;;;;;;;;29.10;1.00;;;;;;10459244;27;84067;-51
2022/05/22 13:42:24;;;;;;;;;;;29.20;1.00;;;;;;10473696;27;83937;-55
2022/05/22 13:47:37;;;;;;;;;;;29.40;1.00;;;;;;10478582;27;84490;-53
2022/05/22 13:52:42;;;;;;;;;;;29.40;1.00;;;;;;10466701;27;86106;-51
2022/05/22 13:58:09;;;;;;;;;;;28.10;1.00;;;;;;10470837;27;84463;-55
2022/05/22 14:03:18;;;;;;;;;;;27.40;1.00;;;;;;10465997;27;83279;-57
2022/05/22 14:08:20;;;;;;;;;;;25.60;1.00;;;;;;10478070;27;84483;-57
2022/05/22 14:13:22;;;;;;;;;;;24.80;1.00;;;;;;10458884;27;85212;-52
2022/05/22 14:18:25;;;;;;;;;;;24.50;1.00;;;;;;10457679;27;83503;-55
2022/05/22 14:23:27;;;;;;;;;;;24.20;1.00;;;;;;10464786;27;84067;-54
2022/05/22 14:28:29;;;;;;;;;;;24.10;1.00;;;;;;10453574;27;84316;-52
2022/05/22 14:33:35;;;;;;;;;;;23.90;1.00;;;;;;10460282;27;84192;-52
2022/05/22 14:38:38;;;;;;;;;;;24.10;1.00;;;;;;10463639;27;83522;-54
2022/05/22 14:43:41;;;;;;;;;;;23.70;1.00;;;;;;10466926;27;83531;-54
2022/05/22 14:48:43;;;;;;;;;;;23.90;1.00;;;;;;10464616;27;83454;-54
2022/05/22 14:53:44;;;;;;;;;;;23.70;1.00;;;;;;10463546;27;83476;-55
2022/05/22 14:59:02;;;;;;;;;;;23.30;1.00;;;;;;10449832;27;83992;-52
2022/05/22 15:04:05;;;;;;;;;;;23.30;1.00;;;;;;10452461;27;83608;-55
2022/05/22 15:09:06;;;;;;;;;;;23.30;1.00;;;;;;10463827;27;83987;-52
2022/05/22 15:14:07;;;;;;;;;;;23.10;1.00;;;;;;10458343;27;83498;-53
2022/05/22 15:30:08;;;;;;;;;;;22.70;1.00;;;;;;10453670;27;84064;-55
2022/05/22 15:35:09;;;;;;;;;;;22.40;1.00;;;;;;10465118;27;83441;-51
2022/05/22 15:40:13;;;;;;;;;;;22.50;1.00;;;;;;10462041;27;85869;-56
2022/05/22 15:45:19;;;;;;;;;;;22.50;1.00;;;;;;10472008;27;83410;-55
2022/05/22 15:55:39;;;;;;;;;;;21.90;1.00;;;;;;10459954;27;83881;-55
2022/05/22 16:00:40;;;;;;;;;;;21.80;1.00;;;;;;10456399;27;83437;-55
2022/05/22 16:05:44;;;;;;;;;;;21.70;1.00;;;;;;10468704;22;83947;-47
2022/05/22 16:10:45;;;;;;;;;;;21.80;1.00;;;;;;10451132;27;84098;-47
2022/05/22 16:15:45;;;;;;;;;;;21.70;1.00;;;;;;10444235;27;84766;-45
2022/05/22 16:20:46;;;;;;;;;;;21.60;1.00;;;;;;10428190;28;85085;-49
2022/05/22 16:25:47;;;;;;;;;;;21.50;1.00;;;;;;10439754;28;85146;-46
2022/05/22 16:30:48;;;;;;;;;;;21.30;1.00;;;;;;10444440;27;83960;-45
2022/05/22 16:35:49;;;;;;;;;;;21.30;1.00;;;;;;10449116;27;84354;-46
2022/05/22 16:40:49;;;;;;;;;;;21.30;1.00;;;;;;10407414;27;83980;-46
2022/05/22 16:45:50;;;;;;;;;;;21.20;1.00;;;;;;10446706;27;84124;-50
2022/05/22 16:56:10;;;;;;;;;;;21.10;1.00;;;;;;10442471;27;84220;-44
2022/05/22 17:01:12;;;;;;;;;;;21.00;1.00;;;;;;10450816;27;85585;-49
2022/05/22 17:06:14;;;;;;;;;;;20.90;1.00;;;;;;10423547;27;84272;-50
2022/05/22 17:11:23;;;;;;;;;;;20.90;1.00;;;;;;10447409;27;83892;-46
2022/05/22 17:16:24;;;;;;;;;;;20.80;1.00;;;;;;10444445;27;83964;-45
2022/05/22 17:21:24;;;;;;;;;;;20.80;99.90;;;;;;10447628;28;83786;-48
2022/05/22 17:26:25;;;;;;;;;;;20.90;99.90;;;;;;10446226;27;84236;-48
2022/05/22 17:31:26;;;;;;;;;;;20.90;99.90;;;;;;10445687;27;83914;-50
2022/05/22 17:36:27;;;;;;;;;;;20.90;99.90;;;;;;10442362;27;84059;-48
2022/05/22 17:41:28;;;;;;;;;;;20.80;99.90;;;;;;10437427;28;83788;-47
2022/05/22 17:46:29;;;;;;;;;;;20.60;1.00;;;;;;10440009;27;83735;-51
2022/05/22 17:51:30;;;;;;;;;;;20.70;1.00;;;;;;10437621;28;84324;-47
2022/05/22 17:56:31;;;;;;;;;;;20.70;1.00;;;;;;10445812;28;83870;-51
2022/05/22 18:01:31;;;;;;;;;;;20.50;1.00;;;;;;10421159;28;84838;-49
2022/05/22 18:06:32;;;;;;;;;;;20.40;1.00;;;;;;10437179;27;83978;-48
2022/05/22 18:16:54;;;;;;;;;;;20.30;99.90;;;;;;10409964;27;83959;-46
2022/05/22 18:21:56;;;;;;;;;;;20.30;99.90;;;;;;10435647;28;84395;-48
2022/05/22 18:26:57;;;;;;;;;;;20.40;1.00;;;;;;10442851;27;83738;-50
2022/05/22 18:31:58;;;;;;;;;;;20.40;1.00;;;;;;10436124;28;84114;-49
2022/05/22 18:36:59;;;;;;;;;;;20.40;1.00;;;;;;10441138;27;83833;-47
2022/05/22 18:42:00;;;;;;;;;;;20.20;1.00;;;;;;10445376;28;85623;-51
2022/05/22 18:47:01;;;;;;;;;;;20.10;21.20;;;;;;10438731;28;84638;-57
2022/05/22 18:52:02;;;;;;;;;;;20.00;99.90;;;;;;10423133;28;86145;-50
2022/05/22 18:57:02;;;;;;;;;;;19.80;1.00;;;;;;10434147;27;84243;-49
2022/05/22 19:02:03;;;;;;;;;;;19.70;1.00;;;;;;10432133;28;84438;-51
2022/05/22 19:07:04;;;;;;;;;;;19.40;27.40;;;;;;10438219;28;86312;-50
2022/05/22 19:12:05;;;;;;;;;;;19.30;1.00;;;;;;10443197;27;84077;-51
2022/05/22 19:17:09;;;;;;;;;;;19.30;1.00;;;;;;10442577;28;84963;-51
2022/05/22 19:22:09;;;;;;;;;;;19.10;1.00;;;;;;10435172;28;84535;-51
2022/05/22 19:27:10;;;;;;;;;;;18.90;99.90;;;;;;10402931;28;83914;-50
2022/05/22 19:32:13;;;;;;;;;;;18.80;1.00;;;;;;10404107;28;83920;-48
2022/05/22 19:37:14;;;;;;;;;;;18.60;1.00;;;;;;10408377;28;84221;-50
2022/05/22 19:47:37;;;;;;;;;;;18.40;1.00;;;;;;10410339;28;84933;-47
2022/05/22 19:52:38;;;;;;;;;;;18.30;61.20;;;;;;10399302;28;84383;-52
2022/05/22 20:02:59;;;;;;;;;;;18.10;1.00;;;;;;10417771;28;83399;-50
2022/05/22 20:08:02;;;;;;;;;;;17.90;1.00;;;;;;10398324;28;85942;-46
2022/05/22 20:13:06;;;;;;;;;;;17.80;82.40;;;;;;10415927;28;84662;-47
2022/05/22 20:18:07;;;;;;;;;;;17.80;87.90;;;;;;10415644;28;85845;-48
2022/05/22 20:23:11;;;;;;;;;;;17.70;99.90;;;;;;10416941;28;83845;-48
2022/05/22 20:28:15;;;;;;;;;;;17.50;99.90;;;;;;10416639;28;84809;-51
2022/05/22 20:33:16;;;;;;;;;;;17.50;1.00;;;;;;10416299;28;83410;-47
2022/05/22 20:38:16;;;;;;;;;;;17.40;1.00;;;;;;10414768;28;83801;-51
2022/05/22 20:43:17;;;;;;;;;;;17.40;1.00;;;;;;10416542;28;83921;-49
2022/05/22 20:48:20;;;;;;;;;;;17.20;1.00;;;;;;10415394;28;83869;-47
2022/05/22 20:53:21;;;;;;;;;;;17.10;1.00;;;;;;10414422;28;85188;-48
2022/05/22 20:58:22;;;;;;;;;;;17.10;1.00;;;;;;10413502;28;83721;-50
2022/05/22 21:03:23;;;;;;;;;;;17.10;1.00;;;;;;10414746;28;83997;-48
2022/05/22 21:08:24;;;;;;;;;;;17.00;1.00;;;;;;10413914;28;83762;-47
2022/05/22 21:13:25;;;;;;;;;;;16.80;1.00;;;;;;10413848;28;83747;-51
2022/05/22 21:18:26;;;;;;;;;;;16.80;1.00;;;;;;10414669;28;84262;-51
2022/05/22 21:28:46;;;;;;;;;;;16.50;99.90;;;;;;10413309;28;84137;-49
2022/05/22 21:33:46;;;;;;;;;;;16.50;99.90;;;;;;10413140;28;83837;-50
2022/05/22 21:38:47;;;;;;;;;;;16.50;99.90;;;;;;10413783;28;83723;-50
2022/05/22 21:43:48;;;;;;;;;;;16.40;99.90;;;;;;10415227;28;83737;-56
2022/05/22 21:48:48;;;;;;;;;;;16.40;99.90;;;;;;10413415;28;83338;-48
2022/05/22 21:53:49;;;;;;;;;;;16.30;99.90;;;;;;10411061;28;85110;-47
2022/05/22 21:58:50;;;;;;;;;;;16.30;99.90;;;;;;10412381;28;83987;-52
2022/05/22 22:03:50;;;;;;;;;;;16.30;99.90;;;;;;10413325;28;83919;-51
2022/05/22 22:08:51;;;;;;;;;;;16.20;99.90;;;;;;10497955;22;83976;-55
2022/05/22 22:13:51;;;;;;;;;;;16.20;99.90;;;;;;10496302;27;83962;-56
2022/05/22 22:18:52;;;;;;;;;;;16.30;99.90;;;;;;10462904;27;83993;-51
2022/05/22 22:23:52;;;;;;;;;;;16.20;99.90;;;;;;10454557;28;83951;-55
2022/05/22 22:28:54;;;;;;;;;;;16.10;99.90;;;;;;10453440;27;84003;-56
2022/05/22 22:33:54;;;;;;;;;;;16.10;99.90;;;;;;10454112;27;83375;-55
2022/05/22 22:38:55;;;;;;;;;;;16.10;99.90;;;;;;10453068;27;84058;-53
2022/05/22 22:43:56;;;;;;;;;;;16.00;99.90;;;;;;10453664;28;83990;-53
2022/05/22 22:48:56;;;;;;;;;;;16.00;99.90;;;;;;10452262;28;84411;-50
2022/05/22 22:59:16;;;;;;;;;;;16.10;99.90;;;;;;10446567;28;83439;-56
2022/05/22 23:04:16;;;;;;;;;;;16.00;99.90;;;;;;10453771;28;83748;-53
2022/05/22 23:09:17;;;;;;;;;;;16.00;99.90;;;;;;10452404;27;84175;-54
2022/05/22 23:14:18;;;;;;;;;;;16.00;99.90;;;;;;10456428;27;84204;-49
2022/05/22 23:19:18;;;;;;;;;;;16.00;99.90;;;;;;10460327;27;84495;-50
2022/05/22 23:24:19;;;;;;;;;;;16.00;99.90;;;;;;10462878;28;84741;-53
2022/05/22 23:29:20;;;;;;;;;;;15.90;99.90;;;;;;10459249;27;84838;-54
2022/05/22 23:34:20;;;;;;;;;;;16.00;99.90;;;;;;10459027;27;84794;-53
2022/05/22 23:39:25;;;;;;;;;;;15.90;99.90;;;;;;10458415;27;84288;-52
2022/05/22 23:44:26;;;;;;;;;;;15.90;99.90;;;;;;10457985;27;84620;-51
2022/05/22 23:49:27;;;;;;;;;;;16.00;99.90;;;;;;10458832;27;84916;-49
2022/05/22 23:54:29;;;;;;;;;;;15.90;99.90;;;;;;10459170;28;84045;-55
2022/05/22 23:59:29;;;;;;;;;;;15.90;99.90;;;;;;10459439;27;84831;-55
